Cleveland, OH

3:34 PM EDT on September 27, 2016 (GMT -0400)
Cleveland-Hopkins International | | Change Station

Elev 804 ft 41.40 °N, 81.85 °W | Updated 43 minutes ago

Partly Cloudy
Partly Cloudy
74 °F
Feels Like 74 °F
N
24
Wind Variable Wind from SW
Gusts 38 mph

Today
High -- | Low -- °F
--% Chance of Precip.
Yesterday
High -- | Low -- °F
Precip. -- in
Pressure 29.79 in
Visibility 10.0 miles
Clouds Few 8000 ft
Dew Point 37 °F
Humidity 26%
Rainfall 0.00 in
Snow Depth Not available.
7:19 AM 7:14 PM
Waning Crescent, 10% visible
METAR KCLE 271851Z 23021G33KT 10SM FEW080 23/03 A2980 RMK AO2 PK WND 25033/1846 SLP087 T02330028
Pressure 29.79 in
Visibility 10.0 miles
Clouds Few 8000 ft
Dew Point 37 °F
Humidity 26%
Rainfall 0.00 in
Snow Depth Not available.
7:19 AM 7:14 PM
Waning Crescent, 10% visible
METAR KCLE 271851Z 23021G33KT 10SM FEW080 23/03 A2980 RMK AO2 PK WND 25033/1846 SLP087 T02330028

10-Day Weather Forecast

Almanac

Astronomy

Sep. 27, 2016 Rise Set
Actual Time
Civil Twilight
Nautical Twilight
Astronomical Twilight
Moon
Length of Visible Light
Length of Day
Tomorrow will be .
, % of the Moon is Illuminated

Today's Extremes

State Highs State Lows

Community

WunderPhotos

Upload Photos

1,942,168 photos uploaded!

WunderBlog® & News

Nearby

Air Quality

  Air Quality AQ Index Pollutant
Not available.

Snow Depth

Station Depth Elevation

Earthquake Activity

City Distance Mag. Time & Date
Minimum magnitude displayed is 2.5.

Coastal Water Temperatures

Place Temperature

Stations

Nearby Weather Stations

Station Location Temp. Windchill Dew Point Humidity Wind Precip. Elev Updated Type
                   

Watches & Warnings

There are currently no watches in effect.